Time;durP1;ratioP1;P1;durP2;ratioP2;P2;SDS_P1;SDS_P2;PMS_P1;PMS_P2;Temp;Humidity;BMP_temperature;BMP_pressure;BME280_temperature;BME280_humidity;BME280_pressure;Samples;Min_cycle;Max_cycle;Signal;HPM_P1;HPM_P2
2023/10/03 00:02:08;;;;;;;42.53;21.25;;;18.00;99.90;;;;;;5071743;28;20040;-46
2023/10/03 00:04:34;;;;;;;37.50;21.80;;;17.90;99.90;;;;;;5071667;28;20041;-45
2023/10/03 00:07:00;;;;;;;37.20;20.25;;;17.90;99.90;;;;;;5071900;28;20125;-45
2023/10/03 00:09:26;;;;;;;38.25;21.13;;;18.00;99.90;;;;;;5071819;28;20121;-45
2023/10/03 00:11:51;;;;;;;34.88;20.40;;;17.90;99.90;;;;;;5071786;28;20097;-45
2023/10/03 00:14:18;;;;;;;40.15;20.23;;;18.00;99.90;;;;;;5071622;28;20444;-45
2023/10/03 00:16:44;;;;;;;40.05;20.88;;;18.00;99.90;;;;;;5071840;28;20396;-45
2023/10/03 00:19:11;;;;;;;39.17;20.90;;;18.00;99.90;;;;;;5071867;28;20076;-47
2023/10/03 00:21:37;;;;;;;35.53;20.15;;;18.00;99.90;;;;;;5071843;28;20048;-45
2023/10/03 00:24:03;;;;;;;36.10;19.58;;;17.90;99.90;;;;;;5071588;28;20040;-46
2023/10/03 00:26:31;;;;;;;36.33;20.63;;;18.00;99.90;;;;;;5071692;28;20434;-44
2023/10/03 00:28:56;;;;;;;39.58;21.35;;;17.90;99.90;;;;;;5071224;28;20059;-46
2023/10/03 00:31:22;;;;;;;38.90;20.77;;;18.00;99.90;;;;;;5071802;28;20049;-46
2023/10/03 00:33:48;;;;;;;39.90;21.08;;;18.00;99.90;;;;;;5071755;28;20041;-45
2023/10/03 00:36:23;;;;;;;40.25;20.05;;;18.00;99.90;;;;;;5071708;28;20059;-49
2023/10/03 00:38:50;;;;;;;35.90;19.80;;;18.00;99.90;;;;;;5071756;28;20037;-46
2023/10/03 00:41:19;;;;;;;41.95;21.33;;;18.00;99.90;;;;;;5071618;28;20051;-46
2023/10/03 00:43:59;;;;;;;39.38;21.15;;;18.00;99.90;;;;;;5071541;28;20048;-46
2023/10/03 00:46:27;;;;;;;37.88;20.52;;;17.90;99.90;;;;;;5071530;28;20072;-45
2023/10/03 00:48:53;;;;;;;39.92;21.50;;;17.90;99.90;;;;;;5074926;28;20044;-47
2023/10/03 00:51:20;;;;;;;40.10;20.73;;;17.90;99.90;;;;;;5074896;28;20049;-47
2023/10/03 00:53:47;;;;;;;38.80;21.63;;;17.90;99.90;;;;;;5074823;28;20040;-48
2023/10/03 00:56:15;;;;;;;42.05;21.80;;;17.90;99.90;;;;;;5074847;28;20547;-47
2023/10/03 00:58:41;;;;;;;39.25;20.50;;;17.90;99.90;;;;;;5074817;28;20040;-48
2023/10/03 01:01:09;;;;;;;37.15;19.65;;;17.80;99.90;;;;;;5074722;28;20800;-46
2023/10/03 01:03:38;;;;;;;39.60;20.98;;;17.70;99.90;;;;;;5074605;28;20044;-49
2023/10/03 01:06:12;;;;;;;38.85;21.00;;;17.80;99.90;;;;;;5074689;28;20516;-45
2023/10/03 01:08:46;;;;;;;38.85;21.40;;;17.70;99.90;;;;;;5074909;28;20044;-49
2023/10/03 01:11:15;;;;;;;36.95;19.77;;;17.70;99.90;;;;;;5074841;28;20431;-49
2023/10/03 01:14:00;;;;;;;39.30;20.95;;;17.70;99.90;;;;;;5074750;28;20044;-49
2023/10/03 01:16:33;;;;;;;42.25;20.58;;;17.70;99.90;;;;;;5074462;28;20044;-51
2023/10/03 01:19:08;;;;;;;40.50;20.73;;;17.70;99.90;;;;;;5074718;28;20501;-47
2023/10/03 01:21:34;;;;;;;33.55;19.92;;;17.70;99.90;;;;;;5074586;28;20520;-46
2023/10/03 01:24:08;;;;;;;38.50;19.60;;;17.60;99.90;;;;;;5074630;28;20040;-46
2023/10/03 01:26:34;;;;;;;36.30;19.35;;;17.60;99.90;;;;;;5074597;28;20123;-46
2023/10/03 01:29:00;;;;;;;38.78;19.80;;;17.50;99.90;;;;;;5073955;28;20127;-46
2023/10/03 01:31:27;;;;;;;39.97;20.60;;;17.50;99.90;;;;;;5074254;28;20045;-49
2023/10/03 01:33:53;;;;;;;43.42;21.58;;;17.60;99.90;;;;;;5074323;28;20078;-46
2023/10/03 01:36:19;;;;;;;38.85;19.38;;;17.50;99.90;;;;;;5074186;28;20519;-46
2023/10/03 01:38:45;;;;;;;41.40;19.70;;;17.60;99.90;;;;;;5074137;28;20123;-45
2023/10/03 01:41:12;;;;;;;36.28;18.63;;;17.50;99.90;;;;;;5073908;28;20124;-46
2023/10/03 01:43:43;;;;;;;38.05;20.05;;;17.50;99.90;;;;;;5072552;28;20048;-45
2023/10/03 01:46:09;;;;;;;38.22;19.85;;;17.60;99.90;;;;;;5073931;28;20040;-45
2023/10/03 01:48:36;;;;;;;38.95;19.52;;;17.60;99.90;;;;;;5074189;28;20598;-46
2023/10/03 01:51:02;;;;;;;38.63;20.00;;;17.60;99.90;;;;;;5074119;28;20388;-45
2023/10/03 01:53:29;;;;;;;35.13;17.88;;;17.60;99.90;;;;;;5073891;28;20546;-46
2023/10/03 01:55:56;;;;;;;37.65;19.52;;;17.60;99.90;;;;;;5074025;28;20044;-46
2023/10/03 01:58:24;;;;;;;40.33;20.30;;;17.60;99.90;;;;;;5072906;28;20465;-46
2023/10/03 02:00:50;;;;;;;40.10;19.88;;;17.50;99.90;;;;;;5072300;28;20119;-47
2023/10/03 02:03:18;;;;;;;39.42;19.63;;;17.50;99.90;;;;;;5073630;28;20083;-46
2023/10/03 02:05:44;;;;;;;38.15;18.73;;;17.60;99.90;;;;;;5073434;28;20123;-46
2023/10/03 02:08:15;;;;;;;40.78;19.73;;;17.50;99.90;;;;;;5073441;28;20041;-46
2023/10/03 02:10:44;;;;;;;38.70;19.75;;;17.50;99.90;;;;;;5072206;28;20040;-45
2023/10/03 02:13:21;;;;;;;39.40;19.52;;;17.40;99.90;;;;;;5073391;28;20433;-46
2023/10/03 02:15:54;;;;;;;37.53;19.63;;;17.50;99.90;;;;;;5072377;28;20040;-46
2023/10/03 02:18:20;;;;;;;37.78;19.65;;;17.40;99.90;;;;;;5072000;28;20052;-48
2023/10/03 02:21:03;;;;;;;36.63;18.80;;;17.40;99.90;;;;;;5073323;28;20067;-46
2023/10/03 02:23:30;;;;;;;38.63;18.58;;;17.40;99.90;;;;;;5073058;28;20086;-46
2023/10/03 02:26:10;;;;;;;37.97;18.88;;;17.30;99.90;;;;;;5073433;28;20040;-46
2023/10/03 02:28:40;;;;;;;32.80;17.42;;;17.30;99.90;;;;;;5072919;28;20055;-49
2023/10/03 02:31:10;;;;;;;38.10;18.48;;;17.30;99.90;;;;;;5073128;28;20086;-46
2023/10/03 02:33:44;;;;;;;37.13;17.77;;;17.30;99.90;;;;;;5072964;28;20045;-48
2023/10/03 02:36:10;;;;;;;37.75;17.77;;;17.30;99.90;;;;;;5073126;28;20447;-49
2023/10/03 02:38:37;;;;;;;39.92;18.42;;;17.30;99.90;;;;;;5072980;28;20048;-47
2023/10/03 02:41:06;;;;;;;36.58;16.55;;;17.30;99.90;;;;;;5071672;28;20075;-46
2023/10/03 02:43:35;;;;;;;35.45;17.17;;;17.30;99.90;;;;;;5072747;28;20072;-48
2023/10/03 02:46:07;;;;;;;35.70;17.42;;;17.30;99.90;;;;;;5054894;28;20109;-46
2023/10/03 02:48:33;;;;;;;36.13;17.23;;;17.40;99.90;;;;;;5071558;28;20078;-47
2023/10/03 02:51:01;;;;;;;37.97;17.15;;;17.40;99.90;;;;;;5072998;28;20040;-45
2023/10/03 02:53:27;;;;;;;33.67;15.27;;;17.40;99.90;;;;;;5072890;28;20048;-45
2023/10/03 02:55:54;;;;;;;33.00;15.52;;;17.40;99.90;;;;;;5072682;28;20036;-45
2023/10/03 02:58:20;;;;;;;35.75;15.95;;;17.40;99.90;;;;;;5072620;28;20515;-45
2023/10/03 03:01:04;;;;;;;32.80;15.57;;;17.40;99.90;;;;;;5071591;28;20051;-45
2023/10/03 03:03:30;;;;;;;32.72;16.02;;;17.50;99.90;;;;;;5071383;28;20049;-47
2023/10/03 03:05:59;;;;;;;35.00;15.82;;;17.50;99.90;;;;;;5071315;28;20044;-47
2023/10/03 03:08:28;;;;;;;38.72;17.27;;;17.50;99.90;;;;;;5072479;28;20036;-46
2023/10/03 03:10:57;;;;;;;36.88;16.15;;;17.60;99.90;;;;;;5072145;28;20055;-46
2023/10/03 03:13:24;;;;;;;34.92;16.23;;;17.60;99.90;;;;;;5072565;28;20036;-45
2023/10/03 03:15:59;;;;;;;30.98;15.48;;;17.70;99.90;;;;;;5072430;28;20115;-46
2023/10/03 03:18:31;;;;;;;33.05;15.23;;;17.60;99.90;;;;;;5072564;28;20039;-45
2023/10/03 03:21:02;;;;;;;33.50;16.25;;;17.60;99.90;;;;;;5072229;28;20040;-47
2023/10/03 03:23:36;;;;;;;30.85;14.65;;;17.60;99.90;;;;;;5071990;28;20044;-47
2023/10/03 03:26:14;;;;;;;36.00;16.13;;;17.70;99.90;;;;;;5072325;28;20051;-45
2023/10/03 03:28:43;;;;;;;34.85;16.65;;;17.60;99.90;;;;;;5071816;28;20063;-45
2023/10/03 03:31:22;;;;;;;33.97;16.00;;;17.60;99.90;;;;;;5071992;28;20504;-47
2023/10/03 03:33:53;;;;;;;31.48;15.00;;;17.70;99.90;;;;;;5071875;28;20045;-45
2023/10/03 03:36:20;;;;;;;31.83;15.35;;;17.70;99.90;;;;;;5070863;28;20040;-46
2023/10/03 03:38:51;;;;;;;33.45;14.43;;;17.80;99.90;;;;;;5070661;28;20047;-45
2023/10/03 03:41:18;;;;;;;30.08;14.57;;;17.80;99.90;;;;;;5072157;28;20044;-48
2023/10/03 03:43:44;;;;;;;32.38;15.40;;;17.80;99.90;;;;;;5072010;28;20037;-46
2023/10/03 03:46:12;;;;;;;30.52;14.52;;;17.80;99.90;;;;;;5071881;28;20035;-50
2023/10/03 03:48:39;;;;;;;33.10;13.98;;;17.80;99.90;;;;;;5071748;28;20550;-46
2023/10/03 03:51:06;;;;;;;29.70;13.75;;;17.90;99.90;;;;;;5070968;28;20037;-48
2023/10/03 03:53:35;;;;;;;34.20;15.25;;;18.00;99.90;;;;;;5071566;28;20045;-48
2023/10/03 03:56:07;;;;;;;31.73;15.23;;;18.00;99.90;;;;;;5071868;28;20443;-45
2023/10/03 03:58:54;;;;;;;31.60;15.70;;;18.00;98.40;;;;;;5071681;28;20474;-46
2023/10/03 04:01:20;;;;;;;31.27;14.05;;;18.10;96.30;;;;;;5071552;28;20044;-45
2023/10/03 04:03:53;;;;;;;32.97;15.02;;;18.10;97.10;;;;;;5071812;28;20124;-45
2023/10/03 04:06:20;;;;;;;33.08;15.65;;;18.10;95.70;;;;;;5070523;28;20050;-46
2023/10/03 04:08:46;;;;;;;28.58;14.27;;;18.10;96.40;;;;;;5071699;28;20464;-46
2023/10/03 04:11:13;;;;;;;32.33;15.30;;;18.10;95.10;;;;;;5071702;28;20040;-45
2023/10/03 04:13:49;;;;;;;30.27;13.57;;;18.10;95.20;;;;;;5071715;28;20110;-46
2023/10/03 04:16:16;;;;;;;27.98;13.60;;;18.10;93.20;;;;;;5071977;28;20048;-45
2023/10/03 04:18:44;;;;;;;33.33;14.35;;;18.20;93.00;;;;;;5070445;28;20095;-46
2023/10/03 04:21:10;;;;;;;28.92;14.05;;;18.20;93.50;;;;;;5070332;28;20218;-46
2023/10/03 04:23:37;;;;;;;31.75;14.35;;;18.20;93.20;;;;;;5075041;28;20058;-46
2023/10/03 04:26:06;;;;;;;28.60;13.52;;;18.10;93.60;;;;;;5075589;28;20033;-45
2023/10/03 04:28:32;;;;;;;30.20;13.90;;;18.10;93.90;;;;;;5074892;28;20041;-45
2023/10/03 04:30:58;;;;;;;31.67;13.77;;;18.10;95.60;;;;;;5075189;28;20044;-47
2023/10/03 04:33:24;;;;;;;29.40;13.50;;;18.10;95.40;;;;;;5075280;28;20040;-46
2023/10/03 04:35:51;;;;;;;27.20;13.02;;;18.10;96.70;;;;;;5075264;28;20048;-45
2023/10/03 04:38:17;;;;;;;29.05;12.77;;;18.10;97.70;;;;;;5075364;28;20147;-46
2023/10/03 04:40:44;;;;;;;36.67;15.40;;;18.10;97.40;;;;;;5075154;28;20044;-46
2023/10/03 04:43:15;;;;;;;27.75;13.48;;;18.20;97.50;;;;;;5073694;28;20045;-46
2023/10/03 04:45:42;;;;;;;33.97;13.98;;;18.20;98.30;;;;;;5075276;28;20063;-47
2023/10/03 04:48:09;;;;;;;31.60;13.32;;;18.30;99.80;;;;;;5074923;28;20481;-46
2023/10/03 04:50:39;;;;;;;30.55;14.27;;;18.30;99.90;;;;;;5074969;28;20068;-47
2023/10/03 04:53:09;;;;;;;31.48;14.10;;;18.40;99.90;;;;;;5075048;28;20055;-45
2023/10/03 04:55:35;;;;;;;32.03;14.35;;;18.40;99.90;;;;;;5074731;28;20116;-46
2023/10/03 04:58:01;;;;;;;31.92;14.48;;;18.40;99.90;;;;;;5074827;28;20170;-45
2023/10/03 05:00:27;;;;;;;30.15;14.27;;;18.50;99.90;;;;;;5073462;28;20063;-45
2023/10/03 05:02:53;;;;;;;29.95;14.70;;;18.50;99.90;;;;;;5074502;28;20032;-46
2023/10/03 05:05:21;;;;;;;29.15;15.20;;;18.50;99.90;;;;;;5074576;28;20055;-45
2023/10/03 05:07:48;;;;;;;31.77;15.95;;;18.60;99.90;;;;;;5075021;28;20043;-47
2023/10/03 05:10:17;;;;;;;31.10;14.80;;;18.60;99.90;;;;;;5074597;28;20064;-47
2023/10/03 05:12:45;;;;;;;30.30;14.05;;;18.60;99.90;;;;;;5074903;28;20051;-47
2023/10/03 05:15:11;;;;;;;28.75;14.65;;;18.80;99.90;;;;;;5073525;28;20078;-50
2023/10/03 05:17:38;;;;;;;34.83;15.40;;;18.90;99.90;;;;;;5072579;28;20040;-46
2023/10/03 05:20:05;;;;;;;30.58;14.50;;;18.90;99.90;;;;;;5073694;28;20435;-48
2023/10/03 05:22:32;;;;;;;32.60;15.13;;;19.00;99.90;;;;;;5073494;28;20539;-46
2023/10/03 05:25:01;;;;;;;40.40;16.42;;;19.00;99.90;;;;;;5073734;28;20097;-49
2023/10/03 05:27:30;;;;;;;35.92;16.73;;;19.00;99.90;;;;;;5072337;28;20036;-46
2023/10/03 05:30:05;;;;;;;38.58;15.90;;;19.00;99.90;;;;;;5073538;28;20049;-49
2023/10/03 05:32:34;;;;;;;39.60;16.67;;;18.90;99.90;;;;;;5073242;28;20596;-49
2023/10/03 05:35:00;;;;;;;38.63;16.20;;;18.90;99.90;;;;;;5073288;28;20167;-50
2023/10/03 05:37:26;;;;;;;35.90;18.15;;;18.90;99.90;;;;;;5073442;28;20036;-48
2023/10/03 05:39:53;;;;;;;33.70;15.82;;;18.90;99.90;;;;;;5073186;28;20043;-49
2023/10/03 05:42:19;;;;;;;41.40;17.70;;;18.90;99.90;;;;;;5073338;28;20112;-46
2023/10/03 05:44:45;;;;;;;41.85;17.42;;;19.00;99.90;;;;;;5073076;28;20048;-47
2023/10/03 05:47:12;;;;;;;36.95;18.27;;;18.90;99.90;;;;;;5073365;28;20110;-47
2023/10/03 05:49:37;;;;;;;41.88;17.40;;;18.90;99.90;;;;;;5073010;28;20037;-49
2023/10/03 05:52:03;;;;;;;34.35;17.75;;;19.00;99.90;;;;;;5072933;28;20039;-46
2023/10/03 05:54:30;;;;;;;40.90;16.83;;;18.90;99.90;;;;;;5071576;28;20515;-48
2023/10/03 05:56:57;;;;;;;40.75;16.92;;;19.00;99.90;;;;;;5071603;28;20048;-47
2023/10/03 05:59:23;;;;;;;38.28;17.15;;;18.90;99.90;;;;;;5072606;28;20044;-46
2023/10/03 06:01:49;;;;;;;38.22;16.23;;;19.00;99.90;;;;;;5072535;28;20124;-48
2023/10/03 06:04:16;;;;;;;28.73;15.07;;;19.00;99.90;;;;;;5072379;28;20132;-49
2023/10/03 06:06:43;;;;;;;31.42;16.27;;;19.00;99.90;;;;;;5072677;28;20050;-49
2023/10/03 06:09:12;;;;;;;34.08;15.27;;;19.00;99.90;;;;;;5073005;28;20045;-50
2023/10/03 06:11:38;;;;;;;28.40;14.88;;;19.00;99.90;;;;;;5072191;28;20040;-48
2023/10/03 06:14:05;;;;;;;28.50;15.10;;;18.90;99.90;;;;;;5071929;28;20037;-45
2023/10/03 06:16:31;;;;;;;25.50;13.20;;;18.90;99.90;;;;;;5071717;28;20488;-45
2023/10/03 06:18:57;;;;;;;31.63;14.98;;;18.90;99.90;;;;;;5072197;28;20428;-46
2023/10/03 06:21:23;;;;;;;35.45;15.85;;;18.90;99.90;;;;;;5072046;28;20123;-46
2023/10/03 06:23:50;;;;;;;29.75;13.95;;;18.90;99.90;;;;;;5072444;28;20049;-46
2023/10/03 06:26:20;;;;;;;26.67;13.50;;;18.90;99.90;;;;;;5072427;28;20064;-49
2023/10/03 06:28:49;;;;;;;28.48;13.35;;;18.80;99.90;;;;;;5072130;28;20409;-46
2023/10/03 06:31:15;;;;;;;24.35;13.38;;;18.70;99.90;;;;;;5072437;28;20046;-46
2023/10/03 06:33:42;;;;;;;21.48;12.48;;;18.80;99.90;;;;;;5067015;28;20033;-48
2023/10/03 06:36:09;;;;;;;24.77;11.85;;;18.70;99.90;;;;;;5060991;28;20115;-46
2023/10/03 06:38:36;;;;;;;26.00;12.90;;;18.70;99.90;;;;;;5061848;28;20056;-46
2023/10/03 06:41:03;;;;;;;21.20;11.65;;;18.70;99.90;;;;;;5060696;28;20377;-46
2023/10/03 06:43:29;;;;;;;21.15;11.20;;;18.70;99.90;;;;;;5034018;28;20055;-49
2023/10/03 06:45:55;;;;;;;23.63;12.65;;;18.60;99.90;;;;;;5051401;28;20120;-47
2023/10/03 06:48:23;;;;;;;24.35;12.82;;;18.60;99.90;;;;;;5052191;28;20119;-46
2023/10/03 06:50:49;;;;;;;24.50;12.57;;;18.60;99.90;;;;;;5052098;28;20116;-49
2023/10/03 06:53:18;;;;;;;24.90;12.65;;;18.60;99.90;;;;;;5051814;28;20531;-46
2023/10/03 06:55:44;;;;;;;26.58;12.40;;;18.60;99.90;;;;;;5052039;28;20045;-48
2023/10/03 06:58:13;;;;;;;22.73;12.00;;;18.70;99.90;;;;;;5051822;28;20045;-47
2023/10/03 07:00:39;;;;;;;25.38;13.13;;;18.60;99.90;;;;;;5051635;28;20080;-50
2023/10/03 07:03:05;;;;;;;27.95;12.48;;;18.60;99.90;;;;;;5051436;28;20051;-47
2023/10/03 07:05:32;;;;;;;24.20;11.52;;;18.50;99.90;;;;;;5051641;28;20044;-47
2023/10/03 07:07:58;;;;;;;25.90;12.43;;;18.50;99.90;;;;;;5050363;28;20041;-47
2023/10/03 07:10:25;;;;;;;28.52;10.35;;;18.40;99.90;;;;;;5050443;28;20047;-47
2023/10/03 07:12:51;;;;;;;28.65;10.73;;;18.40;99.90;;;;;;5051671;28;20107;-45
2023/10/03 07:15:18;;;;;;;32.03;11.05;;;18.30;99.90;;;;;;5051475;28;20454;-46
2023/10/03 07:17:44;;;;;;;24.27;8.52;;;18.20;99.90;;;;;;5051757;28;20028;-46
2023/10/03 07:20:12;;;;;;;25.25;8.52;;;17.90;99.90;;;;;;5051669;28;20397;-47
2023/10/03 07:22:39;;;;;;;28.08;8.82;;;17.70;99.90;;;;;;5054886;28;20033;-50
2023/10/03 07:25:08;;;;;;;22.23;6.95;;;17.60;99.90;;;;;;5052803;28;20044;-46
2023/10/03 07:27:34;;;;;;;19.77;7.30;;;17.50;99.90;;;;;;5050595;28;20049;-62
2023/10/03 07:30:02;;;;;;;21.30;6.40;;;17.50;99.90;;;;;;5061673;28;20053;-48
2023/10/03 07:32:31;;;;;;;19.63;6.60;;;17.40;99.90;;;;;;5064187;28;20040;-46
2023/10/03 07:34:57;;;;;;;25.73;7.13;;;17.40;99.90;;;;;;5063699;28;20489;-50
2023/10/03 07:37:23;;;;;;;18.58;5.53;;;17.30;99.90;;;;;;5063757;28;20032;-46
2023/10/03 07:39:49;;;;;;;19.67;5.45;;;17.30;99.90;;;;;;5064653;28;20412;-46
2023/10/03 07:42:15;;;;;;;22.85;5.18;;;17.20;99.90;;;;;;5064557;28;20032;-47
2023/10/03 07:44:41;;;;;;;15.85;4.63;;;17.10;99.90;;;;;;5061748;28;20504;-49
2023/10/03 07:47:07;;;;;;;14.65;4.53;;;17.00;99.90;;;;;;5063037;28;20079;-55
2023/10/03 07:49:33;;;;;;;12.95;3.08;;;16.90;99.90;;;;;;5064260;28;20114;-50
2023/10/03 07:52:04;;;;;;;14.40;3.83;;;16.60;99.90;;;;;;5065271;28;20059;-52
2023/10/03 07:54:32;;;;;;;13.55;3.10;;;16.50;99.90;;;;;;5065808;28;20052;-47
2023/10/03 07:57:03;;;;;;;13.75;2.72;;;16.50;99.90;;;;;;5065525;28;20102;-49
2023/10/03 07:59:30;;;;;;;15.07;3.03;;;16.40;99.90;;;;;;5070179;28;20071;-47
2023/10/03 08:01:57;;;;;;;9.27;2.08;;;16.40;99.90;;;;;;5067476;28;20041;-53
2023/10/03 08:04:23;;;;;;;11.40;2.45;;;16.40;99.90;;;;;;5066582;28;20040;-45
2023/10/03 08:06:49;;;;;;;9.82;2.17;;;16.30;99.90;;;;;;5068665;28;20055;-50
2023/10/03 08:09:15;;;;;;;13.55;2.25;;;16.30;99.90;;;;;;5068505;28;20075;-50
2023/10/03 08:11:44;;;;;;;11.18;1.92;;;16.20;99.90;;;;;;5069607;28;20036;-49
2023/10/03 08:14:13;;;;;;;13.00;1.95;;;16.20;99.90;;;;;;5069285;28;20504;-50
2023/10/03 08:16:40;;;;;;;10.40;2.00;;;16.20;99.90;;;;;;5068214;28;20060;-50
2023/10/03 08:19:08;;;;;;;11.88;1.77;;;16.10;99.90;;;;;;5066991;28;20101;-51
2023/10/03 08:21:35;;;;;;;12.05;2.05;;;16.20;99.90;;;;;;5068295;28;20127;-47
2023/10/03 08:24:09;;;;;;;6.45;1.70;;;16.20;99.90;;;;;;5069267;28;20384;-47
2023/10/03 08:26:43;;;;;;;10.45;1.73;;;16.10;99.90;;;;;;5068464;28;20041;-50
2023/10/03 08:29:08;;;;;;;7.47;1.50;;;16.20;99.90;;;;;;5069054;28;20432;-47
2023/10/03 08:31:38;;;;;;;10.18;1.45;;;16.20;99.90;;;;;;5068601;28;20036;-46
2023/10/03 08:34:10;;;;;;;9.45;1.92;;;16.20;99.90;;;;;;5067255;28;20059;-46
2023/10/03 08:36:37;;;;;;;10.57;1.40;;;16.20;99.90;;;;;;5068397;28;20056;-46
2023/10/03 08:39:12;;;;;;;8.02;1.30;;;16.30;99.90;;;;;;5068907;28;20072;-48
2023/10/03 08:41:58;;;;;;;11.93;2.03;;;16.40;99.90;;;;;;5068527;28;20032;-47
2023/10/03 08:44:24;;;;;;;9.48;1.27;;;16.20;99.90;;;;;;5069449;28;20119;-46
2023/10/03 08:46:57;;;;;;;10.52;1.45;;;16.10;99.90;;;;;;5069381;28;20159;-47
2023/10/03 08:49:28;;;;;;;4.88;1.00;;;15.90;99.90;;;;;;5068065;28;20040;-46
2023/10/03 08:52:01;;;;;;;8.52;1.23;;;15.40;99.90;;;;;;5067828;28;20044;-46
2023/10/03 08:54:36;;;;;;;7.45;1.20;;;15.10;99.90;;;;;;5068176;28;20047;-46
2023/10/03 08:57:03;;;;;;;5.53;0.90;;;14.90;99.90;;;;;;5068881;28;20435;-49
2023/10/03 08:59:30;;;;;;;9.30;1.00;;;14.80;99.90;;;;;;5069150;28;20043;-46
2023/10/03 09:02:01;;;;;;;9.20;1.27;;;14.90;99.90;;;;;;5068865;28;20043;-46
2023/10/03 09:04:37;;;;;;;7.15;0.88;;;14.90;99.90;;;;;;5068473;28;20110;-47
2023/10/03 09:07:08;;;;;;;9.40;1.17;;;15.00;99.90;;;;;;5067634;28;20043;-46
2023/10/03 09:09:41;;;;;;;8.43;0.90;;;15.00;99.90;;;;;;5067841;28;20036;-47
2023/10/03 09:12:08;;;;;;;9.65;1.08;;;15.00;99.90;;;;;;5068798;28;20028;-47
2023/10/03 09:14:36;;;;;;;14.18;2.22;;;15.00;99.90;;;;;;5068851;28;20488;-49
2023/10/03 09:17:05;;;;;;;5.97;0.90;;;15.00;99.90;;;;;;5068578;28;20518;-47
2023/10/03 09:19:44;;;;;;;4.13;0.73;;;15.00;99.90;;;;;;5067396;28;20033;-48
2023/10/03 09:22:15;;;;;;;7.65;0.80;;;14.80;99.90;;;;;;5068612;28;20440;-46
2023/10/03 09:24:45;;;;;;;7.28;1.00;;;14.80;99.90;;;;;;5068131;28;20049;-46
2023/10/03 09:27:17;;;;;;;4.30;1.02;;;14.90;99.90;;;;;;5067691;28;20044;-50
2023/10/03 09:29:45;;;;;;;7.85;0.93;;;14.90;99.90;;;;;;5066071;28;20053;-47
2023/10/03 09:32:15;;;;;;;6.70;0.82;;;14.70;99.90;;;;;;5065254;28;20032;-48
2023/10/03 09:34:46;;;;;;;5.30;0.85;;;14.70;99.90;;;;;;5067734;28;20204;-47
2023/10/03 09:37:13;;;;;;;5.82;1.00;;;14.60;99.90;;;;;;5068329;28;20040;-49
2023/10/03 09:39:40;;;;;;;7.22;1.10;;;14.70;99.90;;;;;;5068353;28;20098;-49
2023/10/03 09:42:15;;;;;;;3.63;0.60;;;14.80;99.90;;;;;;5066898;28;20048;-46
2023/10/03 09:44:43;;;;;;;3.72;0.80;;;14.80;99.90;;;;;;5068136;28;20044;-48
2023/10/03 09:47:12;;;;;;;4.55;0.70;;;14.60;99.90;;;;;;5068279;28;20102;-49
2023/10/03 09:49:39;;;;;;;1.63;0.40;;;14.50;99.90;;;;;;5066406;28;20103;-49
2023/10/03 09:52:09;;;;;;;1.98;0.40;;;14.40;99.90;;;;;;5068102;28;20342;-51
2023/10/03 09:54:36;;;;;;;3.65;0.60;;;14.40;99.90;;;;;;5066716;28;20052;-47
2023/10/03 09:57:15;;;;;;;4.50;0.60;;;14.50;99.90;;;;;;5067433;28;20102;-49
2023/10/03 09:59:48;;;;;;;4.13;0.80;;;14.50;99.90;;;;;;5067869;28;20380;-46
2023/10/03 10:02:16;;;;;;;3.40;0.68;;;14.50;99.90;;;;;;5067872;28;20040;-48
2023/10/03 10:04:47;;;;;;;6.90;0.80;;;14.60;99.90;;;;;;5067959;28;20044;-48
2023/10/03 10:07:29;;;;;;;7.68;1.02;;;14.60;99.90;;;;;;5066774;28;20159;-47
2023/10/03 10:10:25;;;;;;;5.30;0.85;;;14.70;99.90;;;;;;5066408;28;20048;-47
2023/10/03 10:13:20;;;;;;;5.68;1.17;;;14.70;99.90;;;;;;5062074;28;20567;-48
2023/10/03 10:16:07;;;;;;;8.27;1.55;;;14.70;99.90;;;;;;5049327;28;20036;-48
2023/10/03 10:18:45;;;;;;;7.72;1.17;;;14.60;99.90;;;;;;5067318;28;20040;-46
2023/10/03 10:21:20;;;;;;;6.93;1.30;;;14.60;99.90;;;;;;5066430;28;20496;-46
2023/10/03 10:24:15;;;;;;;8.02;1.63;;;14.70;99.90;;;;;;5066760;28;20083;-47
2023/10/03 10:26:55;;;;;;;8.07;1.38;;;14.70;99.90;;;;;;5063955;28;20436;-47
2023/10/03 10:29:24;;;;;;;10.98;1.58;;;14.80;99.90;;;;;;5067140;28;20386;-46
2023/10/03 10:32:00;;;;;;;6.95;1.58;;;14.90;99.90;;;;;;5066063;28;20047;-47
2023/10/03 10:34:32;;;;;;;9.57;1.90;;;15.00;99.90;;;;;;5066673;28;20036;-49
2023/10/03 10:37:09;;;;;;;9.57;1.70;;;15.00;99.90;;;;;;5066315;28;20052;-48
2023/10/03 10:39:53;;;;;;;9.38;1.65;;;15.10;99.90;;;;;;5066699;28;20040;-45
2023/10/03 10:42:22;;;;;;;8.57;1.83;;;15.10;99.90;;;;;;5066105;28;20041;-47
2023/10/03 10:45:15;;;;;;;7.82;1.73;;;15.10;94.30;;;;;;5067053;28;20048;-48
2023/10/03 10:47:45;;;;;;;8.35;1.98;;;15.10;72.00;;;;;;5066309;28;20064;-49
2023/10/03 10:50:11;;;;;;;11.30;2.10;;;15.10;46.60;;;;;;5066444;28;20041;-47
2023/10/03 10:52:55;;;;;;;11.10;3.00;;;15.10;37.00;;;;;;5066475;28;20443;-47
2023/10/03 10:55:25;;;;;;;9.57;2.78;;;14.50;63.00;;;;;;5066541;28;20032;-46
2023/10/03 10:58:08;;;;;;;10.55;2.40;;;14.30;75.50;;;;;;5066389;28;20040;-50
2023/10/03 11:00:35;;;;;;;10.85;2.70;;;14.40;62.50;;;;;;5066413;28;20043;-46
2023/10/03 11:03:05;;;;;;;11.27;2.53;;;14.40;84.20;;;;;;5066741;28;20036;-47
2023/10/03 11:05:47;;;;;;;9.43;2.85;;;14.40;91.50;;;;;;5065220;28;20048;-45
2023/10/03 11:08:13;;;;;;;11.80;2.72;;;14.50;83.30;;;;;;5065333;28;20139;-46
2023/10/03 11:10:52;;;;;;;7.90;2.20;;;14.60;70.20;;;;;;5064529;28;20658;-47
2023/10/03 11:13:19;;;;;;;11.65;2.85;;;14.70;59.10;;;;;;5064531;28;20431;-46
2023/10/03 11:15:54;;;;;;;10.07;3.08;;;14.80;50.30;;;;;;5065102;28;20116;-46
2023/10/03 11:18:46;;;;;;;8.05;2.17;;;14.90;30.60;;;;;;5063678;28;20040;-46
2023/10/03 11:21:12;;;;;;;;;;;15.00;23.70;;;;;;5062655;28;20056;-48
2023/10/03 11:23:38;;;;;;;9.23;2.13;;;15.00;14.40;;;;;;5064216;28;19966;-51
2023/10/03 11:26:05;;;;;;;8.30;2.17;;;15.00;15.30;;;;;;5065506;28;20480;-46
2023/10/03 11:28:44;;;;;;;10.60;2.72;;;15.10;7.60;;;;;;5063926;28;20054;-47
2023/10/03 11:31:13;;;;;;;10.57;2.10;;;15.20;5.70;;;;;;5064349;28;20415;-47
2023/10/03 11:33:46;;;;;;;8.88;2.17;;;15.20;1.60;;;;;;5064442;28;20074;-46
2023/10/03 11:36:13;;;;;;;10.13;2.33;;;15.30;3.50;;;;;;5066141;28;20109;-48
2023/10/03 11:38:49;;;;;;;9.02;2.35;;;15.30;1.50;;;;;;5066015;28;20068;-48
2023/10/03 11:41:31;;;;;;;9.05;2.20;;;15.40;1.00;;;;;;5063940;28;20187;-48
2023/10/03 11:43:57;;;;;;;8.98;2.65;;;15.40;1.00;;;;;;5065803;28;20043;-47
2023/10/03 11:46:23;;;;;;;8.63;2.10;;;15.40;2.20;;;;;;5065636;28;20393;-46
2023/10/03 11:48:59;;;;;;;10.77;2.28;;;15.40;1.00;;;;;;5066144;28;20044;-46
2023/10/03 11:51:25;;;;;;;10.27;2.35;;;15.40;1.00;;;;;;5065316;28;20036;-50
2023/10/03 11:53:53;;;;;;;10.27;2.10;;;15.30;1.00;;;;;;5065773;28;20048;-46
2023/10/03 11:56:18;;;;;;;8.15;2.00;;;15.30;4.00;;;;;;5066267;28;20036;-45
2023/10/03 11:58:44;;;;;;;9.15;2.83;;;14.70;7.50;;;;;;5065777;28;20603;-45
2023/10/03 12:01:10;;;;;;;9.13;1.90;;;14.60;21.50;;;;;;5065573;28;20033;-47
2023/10/03 12:03:37;;;;;;;7.68;2.30;;;14.60;25.40;;;;;;5064332;28;20119;-49
2023/10/03 12:06:04;;;;;;;9.52;2.60;;;14.60;25.30;;;;;;5065349;28;20125;-47
2023/10/03 12:08:32;;;;;;;9.27;2.22;;;14.70;33.80;;;;;;5066268;28;20036;-47
2023/10/03 12:10:58;;;;;;;8.98;2.10;;;14.70;59.30;;;;;;5065580;28;20044;-46
2023/10/03 12:13:24;;;;;;;6.57;2.25;;;14.60;61.70;;;;;;5064942;28;20043;-46
2023/10/03 12:15:49;;;;;;;8.85;2.03;;;14.60;62.50;;;;;;5065540;28;20127;-50
2023/10/03 12:18:15;;;;;;;10.95;3.42;;;14.60;62.70;;;;;;5066321;28;20048;-47
2023/10/03 12:20:44;;;;;;;8.85;2.42;;;14.60;55.60;;;;;;5065664;28;20633;-47
2023/10/03 12:23:10;;;;;;;10.90;2.45;;;14.70;49.90;;;;;;5064671;28;20044;-50
2023/10/03 12:25:35;;;;;;;9.43;1.77;;;14.80;48.10;;;;;;5063938;28;20090;-46
2023/10/03 12:28:01;;;;;;;8.70;2.00;;;14.90;43.50;;;;;;5065063;28;20044;-46
2023/10/03 12:30:27;;;;;;;11.13;2.20;;;15.10;18.20;;;;;;5064887;28;20056;-49
2023/10/03 12:32:53;;;;;;;10.18;2.60;;;15.20;14.90;;;;;;5066005;28;20472;-49
2023/10/03 12:35:19;;;;;;;7.20;1.50;;;15.30;5.10;;;;;;5065889;28;20131;-46
2023/10/03 12:37:49;;;;;;;6.55;1.40;;;15.30;1.00;;;;;;5065899;28;20032;-50
2023/10/03 12:40:19;;;;;;;11.18;2.28;;;15.30;1.00;;;;;;5065755;28;20399;-48
2023/10/03 12:42:50;;;;;;;7.82;1.70;;;15.30;1.00;;;;;;5065128;28;20050;-46
2023/10/03 12:45:17;;;;;;;6.50;1.90;;;15.20;1.00;;;;;;5068139;28;20102;-46
2023/10/03 12:47:52;;;;;;;11.35;1.90;;;15.20;6.30;;;;;;5068136;28;20120;-45